createdAt,value
2018-03-11T00:01:03.879Z,9.43
2018-03-11T00:03:32.165Z,8.40
2018-03-11T00:06:00.429Z,8.40
2018-03-11T00:08:29.050Z,8.03
2018-03-11T00:10:57.294Z,8.20
2018-03-11T00:13:25.568Z,7.37
2018-03-11T00:15:53.865Z,8.53
2018-03-11T00:18:22.122Z,7.53
2018-03-11T00:20:50.450Z,7.77
2018-03-11T00:23:19.147Z,7.17
2018-03-11T00:25:48.158Z,7.00
2018-03-11T00:28:16.398Z,8.40
2018-03-11T00:30:45.430Z,8.50
2018-03-11T00:33:13.751Z,8.47
2018-03-11T00:35:42.011Z,8.50
2018-03-11T00:38:10.301Z,9.57
2018-03-11T00:40:38.562Z,8.87
2018-03-11T00:43:06.854Z,8.97
2018-03-11T00:45:35.079Z,9.07
2018-03-11T00:48:04.104Z,7.90
2018-03-11T00:50:32.370Z,9.13
2018-03-11T00:53:00.628Z,8.77
2018-03-11T00:55:29.640Z,9.43
2018-03-11T00:57:57.889Z,8.90
2018-03-11T01:00:26.937Z,9.70
2018-03-11T01:02:55.225Z,8.70
2018-03-11T01:05:23.477Z,8.33
2018-03-11T01:07:51.740Z,9.07
2018-03-11T01:10:20.016Z,9.10
2018-03-11T01:12:49.050Z,9.37
2018-03-11T01:15:17.315Z,9.37
2018-03-11T01:17:45.576Z,8.40
2018-03-11T01:20:13.837Z,9.30
2018-03-11T01:22:42.857Z,9.23
2018-03-11T01:25:11.093Z,8.87
2018-03-11T01:27:40.121Z,9.03
2018-03-11T01:30:08.361Z,9.13
2018-03-11T01:32:36.680Z,8.00
2018-03-11T01:35:04.941Z,9.43
2018-03-11T01:37:34.455Z,9.40
2018-03-11T01:40:02.873Z,9.77
2018-03-11T01:42:31.125Z,9.77
2018-03-11T01:44:59.358Z,9.03
2018-03-11T01:47:28.400Z,9.53
2018-03-11T01:49:56.646Z,8.40
2018-03-11T01:52:24.918Z,8.70
2018-03-11T01:54:53.913Z,8.97
2018-03-11T01:57:23.064Z,9.07
2018-03-11T01:59:51.312Z,9.67
2018-03-11T02:02:19.584Z,8.67
2018-03-11T02:04:47.845Z,9.10
2018-03-11T02:07:16.575Z,8.73
2018-03-11T02:09:44.850Z,10.30
2018-03-11T02:12:13.090Z,9.70
2018-03-11T02:14:42.116Z,10.47
2018-03-11T02:17:10.396Z,8.73
2018-03-11T02:19:39.190Z,9.33
2018-03-11T02:22:08.268Z,10.40
2018-03-11T02:24:36.523Z,11.03
2018-03-11T02:27:05.602Z,10.63
2018-03-11T02:29:33.854Z,11.03
2018-03-11T02:32:02.129Z,11.90
2018-03-11T02:34:30.380Z,12.40
2018-03-11T02:36:58.657Z,11.23
2018-03-11T02:39:26.954Z,9.43
2018-03-11T02:41:55.202Z,8.83
2018-03-11T02:44:23.477Z,10.03
2018-03-11T02:46:51.742Z,8.70
2018-03-11T02:49:20.745Z,8.73
2018-03-11T02:51:49.780Z,9.63
2018-03-11T02:54:18.003Z,9.17
2018-03-11T02:56:47.013Z,7.83
2018-03-11T02:59:15.318Z,11.03
2018-03-11T03:01:43.559Z,13.03
2018-03-11T03:04:11.824Z,12.60
2018-03-11T03:06:40.883Z,13.03
2018-03-11T03:09:09.110Z,14.30
2018-03-11T03:11:37.376Z,12.80
2018-03-11T03:14:05.632Z,13.30
2018-03-11T03:16:33.898Z,12.43
2018-03-11T03:19:02.139Z,12.30
2018-03-11T03:21:30.407Z,14.30
2018-03-11T03:23:59.420Z,14.00
2018-03-11T03:26:27.697Z,14.73
2018-03-11T03:28:56.053Z,14.57
2018-03-11T03:31:25.087Z,14.97
2018-03-11T03:33:53.344Z,16.40
2018-03-11T03:36:21.604Z,15.50
2018-03-11T03:38:49.865Z,14.23
2018-03-11T03:41:18.885Z,13.30
2018-03-11T03:43:47.196Z,14.07
2018-03-11T03:46:15.462Z,13.70
2018-03-11T03:48:43.737Z,11.60
2018-03-11T03:51:12.016Z,12.20
2018-03-11T03:53:40.277Z,11.57
2018-03-11T03:56:08.555Z,11.80
2018-03-11T03:58:36.832Z,12.73
2018-03-11T04:01:05.066Z,13.60
2018-03-11T04:03:34.534Z,12.97
2018-03-11T04:06:02.800Z,12.67
2018-03-11T04:08:31.077Z,13.37
2018-03-11T04:10:59.336Z,11.33
2018-03-11T04:13:27.597Z,13.80
2018-03-11T04:15:56.624Z,11.40
2018-03-11T04:18:25.025Z,11.67
2018-03-11T04:20:53.243Z,13.10
2018-03-11T04:23:22.236Z,12.10
2018-03-11T04:25:50.511Z,12.93
2018-03-11T04:28:19.528Z,12.93
2018-03-11T04:30:47.772Z,13.73
2018-03-11T04:33:16.056Z,18.50
2018-03-11T04:35:45.115Z,15.97
2018-03-11T04:38:13.354Z,15.23
2018-03-11T04:40:41.612Z,14.63
2018-03-11T04:43:09.871Z,13.70
2018-03-11T04:45:39.638Z,13.30
2018-03-11T04:48:07.955Z,11.90
2018-03-11T04:50:36.202Z,12.20
2018-03-11T04:53:04.432Z,11.53
2018-03-11T04:55:32.661Z,9.40
2018-03-11T04:58:00.933Z,13.50
2018-03-11T05:00:29.210Z,13.60
2018-03-11T05:02:57.437Z,13.50
2018-03-11T05:05:25.737Z,12.20
2018-03-11T05:07:53.988Z,12.87
2018-03-11T05:10:22.238Z,12.03
2018-03-11T05:12:50.515Z,11.70
2018-03-11T05:15:18.760Z,12.60
2018-03-11T05:17:47.054Z,12.30
2018-03-11T05:20:15.306Z,12.27
2018-03-11T05:22:43.901Z,12.20
2018-03-11T05:25:12.145Z,12.40
2018-03-11T05:27:41.198Z,13.60
2018-03-11T05:30:09.439Z,12.50
2018-03-11T05:32:37.695Z,12.53
2018-03-11T05:35:06.758Z,13.00
2018-03-11T05:37:34.962Z,14.17
2018-03-11T05:40:03.994Z,14.10
2018-03-11T05:42:32.261Z,15.20
2018-03-11T05:45:00.538Z,15.07
2018-03-11T05:47:28.828Z,12.77
2018-03-11T05:50:00.655Z,12.57
2018-03-11T05:52:29.023Z,13.40
2018-03-11T05:54:58.366Z,12.60
2018-03-11T05:57:26.606Z,12.93
2018-03-11T05:59:55.679Z,12.80
2018-03-11T06:02:23.903Z,11.80
2018-03-11T06:04:52.158Z,11.73
2018-03-11T06:07:21.206Z,11.63
2018-03-11T06:09:49.464Z,12.10
2018-03-11T06:12:17.763Z,13.10
2018-03-11T06:14:46.064Z,13.53
2018-03-11T06:17:14.307Z,12.80
2018-03-11T06:19:42.542Z,12.50
2018-03-11T06:22:13.516Z,12.80
2018-03-11T06:24:41.762Z,12.10
2018-03-11T06:27:10.782Z,13.63
2018-03-11T06:29:39.077Z,12.80
2018-03-11T06:32:07.326Z,12.20
2018-03-11T06:34:36.368Z,10.93
2018-03-11T06:37:04.607Z,11.57
2018-03-11T06:39:32.884Z,13.63
2018-03-11T06:42:01.168Z,11.97
2018-03-11T06:44:29.449Z,13.40
2018-03-11T06:46:57.689Z,13.80
2018-03-11T06:49:26.078Z,14.00
2018-03-11T06:51:57.712Z,13.70
2018-03-11T06:54:25.959Z,12.93
2018-03-11T06:56:54.239Z,12.23
2018-03-11T06:59:22.495Z,13.23
2018-03-11T07:01:50.757Z,13.50
2018-03-11T07:04:20.948Z,13.10
2018-03-11T07:06:50.712Z,13.37
2018-03-11T07:09:18.953Z,13.37
2018-03-11T07:11:47.946Z,12.43
2018-03-11T07:14:16.984Z,12.80
2018-03-11T07:16:45.219Z,13.10
2018-03-11T07:19:14.256Z,12.00
2018-03-11T07:21:42.515Z,11.87
2018-03-11T07:24:10.799Z,12.57
2018-03-11T07:26:39.069Z,10.83
2018-03-11T07:29:08.234Z,12.37
2018-03-11T07:31:36.478Z,10.30
2018-03-11T07:34:04.738Z,10.57
2018-03-11T07:36:33.038Z,10.30
2018-03-11T07:39:01.294Z,10.17
2018-03-11T07:41:30.022Z,10.50
2018-03-11T07:43:58.289Z,10.20
2018-03-11T07:46:26.565Z,9.60
2018-03-11T07:48:54.813Z,11.00
2018-03-11T07:51:23.094Z,11.47
2018-03-11T07:53:51.360Z,12.17
2018-03-11T07:56:19.680Z,9.33
2018-03-11T07:58:47.927Z,11.17
2018-03-11T08:01:17.781Z,10.50
2018-03-11T08:03:46.049Z,12.13
2018-03-11T08:06:14.338Z,10.27
2018-03-11T08:08:42.614Z,10.87
2018-03-11T08:11:11.661Z,10.37
2018-03-11T08:13:39.980Z,9.90
2018-03-11T08:16:08.263Z,9.10
2018-03-11T08:18:36.506Z,10.90
2018-03-11T08:21:04.824Z,9.60
2018-03-11T08:23:33.111Z,10.00
2018-03-11T08:26:01.381Z,9.33
2018-03-11T08:28:29.618Z,10.27
2018-03-11T08:30:57.914Z,11.47
2018-03-11T08:33:26.522Z,9.33
2018-03-11T08:35:54.762Z,9.73
2018-03-11T08:38:23.038Z,9.07
2018-03-11T08:40:51.316Z,10.40
2018-03-11T08:43:19.737Z,9.63
2018-03-11T08:45:48.022Z,11.50
2018-03-11T08:48:17.074Z,8.53
2018-03-11T08:50:45.398Z,9.57
2018-03-11T08:53:13.667Z,8.70
2018-03-11T08:55:43.502Z,8.30
2018-03-11T08:58:11.754Z,10.60
2018-03-11T09:00:40.799Z,8.83
2018-03-11T09:03:09.061Z,7.97
2018-03-11T09:05:37.330Z,7.70
2018-03-11T09:08:06.355Z,7.40
2018-03-11T09:10:34.621Z,7.97
2018-03-11T09:13:03.630Z,6.83
2018-03-11T09:15:31.907Z,6.47
2018-03-11T09:18:00.174Z,5.70
2018-03-11T09:20:28.397Z,5.37
2018-03-11T09:22:56.699Z,5.33
2018-03-11T09:25:25.722Z,4.47
2018-03-11T09:27:53.998Z,4.83
2018-03-11T09:30:22.266Z,4.63
2018-03-11T09:32:52.480Z,3.73
2018-03-11T09:35:24.545Z,3.97
2018-03-11T09:37:52.921Z,4.13
2018-03-11T09:40:21.998Z,3.70
2018-03-11T09:42:50.288Z,3.27
2018-03-11T09:45:19.311Z,3.87
2018-03-11T09:47:47.595Z,2.63
2018-03-11T09:50:15.903Z,4.00
2018-03-11T09:52:46.945Z,2.27
2018-03-11T09:55:15.183Z,2.40
2018-03-11T09:57:43.434Z,2.50
2018-03-11T10:00:12.521Z,2.20
2018-03-11T10:02:41.570Z,2.30
2018-03-11T10:05:09.831Z,2.00
2018-03-11T10:07:38.315Z,2.47
2018-03-11T10:10:06.642Z,1.50
2018-03-11T10:12:34.904Z,2.33
2018-03-11T10:15:07.183Z,2.20
2018-03-11T10:17:36.226Z,2.40
2018-03-11T10:20:05.271Z,2.00
2018-03-11T10:22:33.562Z,2.10
2018-03-11T10:25:01.802Z,1.70
2018-03-11T10:27:30.065Z,1.90
2018-03-11T10:29:58.325Z,1.70
2018-03-11T10:32:27.406Z,2.40
2018-03-11T10:34:56.439Z,2.00
2018-03-11T10:37:24.705Z,2.00
2018-03-11T10:39:52.972Z,2.03
2018-03-11T10:42:25.709Z,1.93
2018-03-11T10:44:53.997Z,2.20
2018-03-11T10:47:22.356Z,1.90
2018-03-11T10:49:50.660Z,2.10
2018-03-11T10:52:19.449Z,2.23
2018-03-11T10:54:47.696Z,2.30
2018-03-11T10:57:19.858Z,2.50
2018-03-11T10:59:48.279Z,2.23
2018-03-11T11:02:19.156Z,2.30
2018-03-11T11:04:52.989Z,3.97
2018-03-11T11:07:21.242Z,2.00
2018-03-11T11:09:49.541Z,2.53
2018-03-11T11:12:18.030Z,1.83
2018-03-11T11:14:46.362Z,2.33
2018-03-11T11:17:15.401Z,1.60
2018-03-11T11:19:43.720Z,1.77
2018-03-11T11:22:12.016Z,1.80
2018-03-11T11:24:41.057Z,2.30
2018-03-11T11:27:09.339Z,1.90
2018-03-11T11:29:38.218Z,2.20
2018-03-11T11:32:10.259Z,2.13
2018-03-11T11:34:39.287Z,2.30
2018-03-11T11:37:07.545Z,2.37
2018-03-11T11:39:35.830Z,2.23
2018-03-11T11:42:04.116Z,2.20
2018-03-11T11:44:32.389Z,2.03
2018-03-11T11:47:00.813Z,2.33
2018-03-11T11:49:29.104Z,1.80
2018-03-11T11:51:57.363Z,2.20
2018-03-11T11:54:25.627Z,1.93
2018-03-11T11:56:54.041Z,2.80
2018-03-11T11:59:22.421Z,2.17
2018-03-11T12:01:51.472Z,2.13
2018-03-11T12:04:19.791Z,2.03
2018-03-11T12:06:48.091Z,2.30
2018-03-11T12:09:17.130Z,2.10
2018-03-11T12:11:45.402Z,2.47
2018-03-11T12:14:15.315Z,2.40
2018-03-11T12:16:45.014Z,2.23
2018-03-11T12:19:13.316Z,2.43
2018-03-11T12:21:41.597Z,2.20
2018-03-11T12:24:11.375Z,2.50
2018-03-11T12:26:39.629Z,2.23
2018-03-11T12:29:08.666Z,2.57
2018-03-11T12:31:36.930Z,2.93
2018-03-11T12:34:05.231Z,2.40
2018-03-11T12:36:33.459Z,2.30
2018-03-11T12:39:01.787Z,2.10
2018-03-11T12:41:30.093Z,3.90
2018-03-11T12:43:58.355Z,1.90
2018-03-11T12:46:26.629Z,1.90
2018-03-11T12:48:54.920Z,2.30
2018-03-11T12:51:23.179Z,1.80
2018-03-11T12:53:51.456Z,2.00
2018-03-11T12:56:19.732Z,2.70
2018-03-11T12:58:48.427Z,1.97
2018-03-11T13:01:16.707Z,2.17
2018-03-11T13:03:44.986Z,2.20
2018-03-11T13:06:13.339Z,1.83
2018-03-11T13:08:41.599Z,1.90
2018-03-11T13:11:09.871Z,2.00
2018-03-11T13:13:38.166Z,2.00
2018-03-11T13:16:06.555Z,2.57
2018-03-11T13:18:38.567Z,2.20
2018-03-11T13:21:07.664Z,1.70
2018-03-11T13:23:35.907Z,2.30
2018-03-11T13:26:04.188Z,1.90
2018-03-11T13:28:45.641Z,2.17
2018-03-11T13:31:14.260Z,1.77
2018-03-11T13:33:57.719Z,1.83
2018-03-11T13:36:26.737Z,2.40
2018-03-11T13:39:06.902Z,2.30
2018-03-11T13:41:35.169Z,2.87
2018-03-11T13:44:03.451Z,2.00
2018-03-11T13:46:43.601Z,2.10
2018-03-11T13:49:11.872Z,3.47
2018-03-11T13:51:52.934Z,3.70
2018-03-11T13:54:21.212Z,2.40
2018-03-11T13:57:02.607Z,2.30
2018-03-11T13:59:30.897Z,2.27
2018-03-11T14:01:59.982Z,2.23
2018-03-11T14:04:29.057Z,2.10
2018-03-11T14:06:57.290Z,2.97
2018-03-11T14:09:25.520Z,3.50
2018-03-11T14:11:56.087Z,2.10
2018-03-11T14:14:24.360Z,2.40
2018-03-11T14:16:52.645Z,2.30
2018-03-11T14:19:20.898Z,3.27
2018-03-11T14:21:49.943Z,2.40
2018-03-11T14:24:18.188Z,2.03
2018-03-11T14:26:46.539Z,2.73
2018-03-11T14:29:15.604Z,2.10
2018-03-11T14:31:43.892Z,2.30
2018-03-11T14:34:12.117Z,2.23
2018-03-11T14:36:40.641Z,2.33
2018-03-11T14:39:08.973Z,2.00
2018-03-11T14:41:37.201Z,1.80
2018-03-11T14:44:05.604Z,2.30
2018-03-11T14:46:34.775Z,1.87
2018-03-11T14:49:03.059Z,1.77
2018-03-11T14:51:32.353Z,2.20
2018-03-11T14:54:00.662Z,1.90
2018-03-11T14:56:28.962Z,2.80
2018-03-11T14:58:57.218Z,3.17
2018-03-11T15:01:25.493Z,2.43
2018-03-11T15:03:53.784Z,1.80
2018-03-11T15:06:22.886Z,1.83
2018-03-11T15:08:51.898Z,2.20
2018-03-11T15:11:20.239Z,2.13
2018-03-11T15:13:48.523Z,1.83
2018-03-11T15:16:17.567Z,2.10
2018-03-11T15:18:45.802Z,2.13
2018-03-11T15:21:14.160Z,2.37
2018-03-11T15:23:43.008Z,2.00
2018-03-11T15:26:11.255Z,2.40
2018-03-11T15:28:40.295Z,2.20
2018-03-11T15:31:11.768Z,1.70
2018-03-11T15:33:40.111Z,2.03
2018-03-11T15:36:08.446Z,2.87
2018-03-11T15:38:36.687Z,2.03
2018-03-11T15:41:08.615Z,1.80
2018-03-11T15:43:36.891Z,2.50
2018-03-11T15:46:05.204Z,2.10
2018-03-11T15:48:33.476Z,2.17
2018-03-11T15:51:01.781Z,2.27
2018-03-11T15:53:30.034Z,2.03
2018-03-11T15:55:58.350Z,2.80
2018-03-11T15:58:26.582Z,2.00
2018-03-11T16:00:54.851Z,2.20
2018-03-11T16:03:23.119Z,1.93
2018-03-11T16:05:53.228Z,1.67
2018-03-11T16:08:22.252Z,2.37
2018-03-11T16:10:50.514Z,3.10
2018-03-11T16:13:18.954Z,2.40
2018-03-11T16:15:48.150Z,2.30
2018-03-11T16:18:16.405Z,2.10
2018-03-11T16:20:45.476Z,1.73
2018-03-11T16:23:13.903Z,2.43
2018-03-11T16:25:42.135Z,2.13
2018-03-11T16:28:10.430Z,2.03
2018-03-11T16:30:38.790Z,3.03
2018-03-11T16:33:08.260Z,3.03
2018-03-11T16:35:37.289Z,3.00
2018-03-11T16:38:05.556Z,3.40
2018-03-11T16:40:33.888Z,2.40
2018-03-11T16:43:02.143Z,7.57
2018-03-11T16:45:30.428Z,4.93
2018-03-11T16:47:58.697Z,5.40
2018-03-11T16:50:28.157Z,3.80
2018-03-11T16:52:56.430Z,3.50
2018-03-11T16:55:25.446Z,2.70
2018-03-11T16:57:54.481Z,3.97
2018-03-11T17:00:22.791Z,3.53
2018-03-11T17:02:51.255Z,3.83
2018-03-11T17:05:19.534Z,2.80
2018-03-11T17:07:47.818Z,3.37
2018-03-11T17:10:16.062Z,3.73
2018-03-11T17:12:46.114Z,3.60
2018-03-11T17:15:16.008Z,4.50
2018-03-11T17:17:44.342Z,6.30
2018-03-11T17:20:13.381Z,3.57
2018-03-11T17:22:41.689Z,3.53
2018-03-11T17:25:09.971Z,4.10
2018-03-11T17:27:38.321Z,3.20
2018-03-11T17:30:10.336Z,9.93
2018-03-11T17:32:39.363Z,7.77
2018-03-11T17:35:09.185Z,3.90
2018-03-11T17:37:37.471Z,4.80
2018-03-11T17:40:05.783Z,3.93
2018-03-11T17:42:34.099Z,4.30
2018-03-11T17:45:02.344Z,4.70
2018-03-11T17:47:31.421Z,4.87
2018-03-11T17:49:59.705Z,6.20
2018-03-11T17:52:28.026Z,7.57
2018-03-11T17:54:56.354Z,7.10
2018-03-11T17:57:24.656Z,8.30
2018-03-11T17:59:52.952Z,12.10
2018-03-11T18:02:21.228Z,10.30
2018-03-11T18:04:49.492Z,4.80
2018-03-11T18:07:17.845Z,5.67
2018-03-11T18:09:46.213Z,6.97
2018-03-11T18:12:14.519Z,6.00
2018-03-11T18:14:42.785Z,6.20
2018-03-11T18:17:11.332Z,4.40
2018-03-11T18:19:39.612Z,4.37
2018-03-11T18:22:07.867Z,5.00
2018-03-11T18:24:36.237Z,4.00
2018-03-11T18:27:04.526Z,4.53
2018-03-11T18:29:33.606Z,4.30
2018-03-11T18:32:01.853Z,4.43
2018-03-11T18:34:30.104Z,3.80
2018-03-11T18:36:58.412Z,4.87
2018-03-11T18:39:26.744Z,4.97
2018-03-11T18:41:55.051Z,5.77
2018-03-11T18:44:23.333Z,5.00
2018-03-11T18:46:51.647Z,4.87
2018-03-11T18:49:20.674Z,5.20
2018-03-11T18:51:48.995Z,6.77
2018-03-11T18:54:17.247Z,5.77
2018-03-11T18:56:45.691Z,6.10
2018-03-11T18:59:13.967Z,5.90
2018-03-11T19:01:42.253Z,5.80
2018-03-11T19:04:10.574Z,5.30
2018-03-11T19:06:39.986Z,4.80
2018-03-11T19:09:08.277Z,4.77
2018-03-11T19:11:36.549Z,7.10
2018-03-11T19:14:04.859Z,5.90
2018-03-11T19:16:33.232Z,7.60
2018-03-11T19:19:02.260Z,6.90
2018-03-11T19:21:32.336Z,5.70
2018-03-11T19:24:00.653Z,6.03
2018-03-11T19:26:28.988Z,7.50
2018-03-11T19:28:57.637Z,6.70
2018-03-11T19:31:26.153Z,6.23
2018-03-11T19:33:54.531Z,6.60
2018-03-11T19:36:22.840Z,4.63
2018-03-11T19:38:51.124Z,6.00
2018-03-11T19:41:19.459Z,6.00
2018-03-11T19:43:47.770Z,7.63
2018-03-11T19:46:16.127Z,5.90
2018-03-11T19:48:44.402Z,6.60
2018-03-11T19:51:12.703Z,6.20
2018-03-11T19:53:41.293Z,5.57
2018-03-11T19:56:10.737Z,7.73
2018-03-11T19:58:39.020Z,7.50
2018-03-11T20:01:07.322Z,5.60
2018-03-11T20:03:35.640Z,6.80
2018-03-11T20:06:04.501Z,7.90
2018-03-11T20:08:35.132Z,7.90
2018-03-11T20:11:05.311Z,8.00
2018-03-11T20:13:33.789Z,6.70
2018-03-11T20:16:03.333Z,7.57
2018-03-11T20:18:35.578Z,7.60
2018-03-11T20:21:05.096Z,7.03
2018-03-11T20:23:33.844Z,7.20
2018-03-11T20:26:02.143Z,8.60
2018-03-11T20:28:30.433Z,7.60
2018-03-11T20:30:58.732Z,7.77
2018-03-11T20:33:26.984Z,7.83
2018-03-11T20:35:55.267Z,6.60
2018-03-11T20:38:23.535Z,6.47
2018-03-11T20:40:51.795Z,7.27
2018-03-11T20:43:20.100Z,6.97
2018-03-11T20:45:48.360Z,8.33
2018-03-11T20:48:16.767Z,7.57
2018-03-11T20:50:45.458Z,9.67
2018-03-11T20:53:13.712Z,7.70
2018-03-11T20:55:41.996Z,8.87
2018-03-11T20:58:10.258Z,7.50
2018-03-11T21:00:38.565Z,7.33
2018-03-11T21:03:07.666Z,7.27
2018-03-11T21:05:35.958Z,8.00
2018-03-11T21:08:04.207Z,8.73
2018-03-11T21:10:34.610Z,8.77
2018-03-11T21:13:02.886Z,9.20
2018-03-11T21:15:31.184Z,8.73
2018-03-11T21:17:59.483Z,7.60
2018-03-11T21:20:27.752Z,8.60
2018-03-11T21:22:56.087Z,9.40
2018-03-11T21:25:24.359Z,8.77
2018-03-11T21:27:52.652Z,9.23
2018-03-11T21:30:31.070Z,8.57
2018-03-11T21:32:59.334Z,9.07
2018-03-11T21:35:28.140Z,8.00
2018-03-11T21:37:56.456Z,6.80
2018-03-11T21:40:24.719Z,8.13
2018-03-11T21:42:53.012Z,9.07
2018-03-11T21:45:21.303Z,8.77
2018-03-11T21:47:54.116Z,9.17
2018-03-11T21:50:23.159Z,8.57
2018-03-11T21:52:51.484Z,7.70
2018-03-11T21:55:20.511Z,9.60
2018-03-11T21:57:48.772Z,9.47
2018-03-11T22:00:17.066Z,9.87
2018-03-11T22:02:45.322Z,10.40
2018-03-11T22:05:14.737Z,8.73
2018-03-11T22:07:43.005Z,10.07
2018-03-11T22:10:11.308Z,8.80
2018-03-11T22:12:40.491Z,9.70
2018-03-11T22:15:08.743Z,10.93
2018-03-11T22:17:36.982Z,9.80
2018-03-11T22:20:06.703Z,9.53
2018-03-11T22:22:34.979Z,9.60
2018-03-11T22:25:03.231Z,9.20
2018-03-11T22:27:31.481Z,9.93
2018-03-11T22:29:59.738Z,9.53
2018-03-11T22:32:29.897Z,9.23
2018-03-11T22:34:58.155Z,10.37
2018-03-11T22:37:26.411Z,10.40
2018-03-11T22:39:55.452Z,8.97
2018-03-11T22:42:23.684Z,8.93
2018-03-11T22:44:52.181Z,9.10
2018-03-11T22:47:21.179Z,10.10
2018-03-11T22:49:49.441Z,9.90
2018-03-11T22:52:17.698Z,9.20
2018-03-11T22:54:45.967Z,9.53
2018-03-11T22:57:14.285Z,10.77
2018-03-11T22:59:42.534Z,9.27
2018-03-11T23:02:11.576Z,10.67
2018-03-11T23:04:39.865Z,10.70
2018-03-11T23:07:08.114Z,10.50
2018-03-11T23:09:36.396Z,9.47
2018-03-11T23:12:04.644Z,9.60
2018-03-11T23:14:33.668Z,9.50
2018-03-11T23:17:01.927Z,9.90
2018-03-11T23:19:30.214Z,10.60
2018-03-11T23:21:58.470Z,9.27
2018-03-11T23:24:27.541Z,10.10
2018-03-11T23:26:55.809Z,9.50
2018-03-11T23:29:24.038Z,9.20
2018-03-11T23:31:52.297Z,10.73
2018-03-11T23:34:21.301Z,10.27
2018-03-11T23:36:49.554Z,9.20
2018-03-11T23:39:17.820Z,10.67
2018-03-11T23:41:47.745Z,8.93
2018-03-11T23:44:17.659Z,8.90
2018-03-11T23:46:45.938Z,9.03
2018-03-11T23:49:15.001Z,8.00
2018-03-11T23:51:43.287Z,7.57
2018-03-11T23:54:11.574Z,7.83
2018-03-11T23:56:41.326Z,9.73
2018-03-11T23:59:10.375Z,9.20
